sensor_id;sensor_type;location;lat;lon;timestamp;temperature;humidity
35920;DHT22;36160;53.370;-6.196;2023-05-07T00:00:28;13.40;99.90
35920;DHT22;36160;53.370;-6.196;2023-05-07T00:02:53;13.50;99.90
35920;DHT22;36160;53.370;-6.196;2023-05-07T00:05:19;13.50;99.90
35920;DHT22;36160;53.370;-6.196;2023-05-07T00:07:45;13.40;99.90
35920;DHT22;36160;53.370;-6.196;2023-05-07T00:10:10;13.50;99.90
35920;DHT22;36160;53.370;-6.196;2023-05-07T00:12:38;13.50;99.90
35920;DHT22;36160;53.370;-6.196;2023-05-07T00:15:04;13.50;99.90
35920;DHT22;36160;53.370;-6.196;2023-05-07T00:17:30;13.40;99.90
35920;DHT22;36160;53.370;-6.196;2023-05-07T00:19:56;13.40;99.90
35920;DHT22;36160;53.370;-6.196;2023-05-07T00:22:21;13.50;99.90
35920;DHT22;36160;53.370;-6.196;2023-05-07T00:24:47;13.50;99.90
35920;DHT22;36160;53.370;-6.196;2023-05-07T00:27:12;13.50;99.90
35920;DHT22;36160;53.370;-6.196;2023-05-07T00:29:38;13.50;99.90
35920;DHT22;36160;53.370;-6.196;2023-05-07T00:32:04;13.50;99.90
35920;DHT22;36160;53.370;-6.196;2023-05-07T00:34:30;13.40;99.90
35920;DHT22;36160;53.370;-6.196;2023-05-07T00:36:56;13.30;99.90
35920;DHT22;36160;53.370;-6.196;2023-05-07T00:39:21;13.30;99.90
35920;DHT22;36160;53.370;-6.196;2023-05-07T00:41:47;13.30;99.90
35920;DHT22;36160;53.370;-6.196;2023-05-07T00:44:13;13.30;99.90
35920;DHT22;36160;53.370;-6.196;2023-05-07T00:46:40;13.30;99.90
35920;DHT22;36160;53.370;-6.196;2023-05-07T00:49:06;13.30;99.90
35920;DHT22;36160;53.370;-6.196;2023-05-07T00:51:33;13.30;99.90
35920;DHT22;36160;53.370;-6.196;2023-05-07T00:54:00;13.30;99.90
35920;DHT22;36160;53.370;-6.196;2023-05-07T00:56:27;13.30;99.90
35920;DHT22;36160;53.370;-6.196;2023-05-07T00:58:53;13.40;99.90
35920;DHT22;36160;53.370;-6.196;2023-05-07T01:01:19;13.40;99.90
35920;DHT22;36160;53.370;-6.196;2023-05-07T01:03:44;13.40;99.90
35920;DHT22;36160;53.370;-6.196;2023-05-07T01:06:10;13.40;99.90
35920;DHT22;36160;53.370;-6.196;2023-05-07T01:08:39;13.40;99.90
35920;DHT22;36160;53.370;-6.196;2023-05-07T01:11:06;13.40;99.90
35920;DHT22;36160;53.370;-6.196;2023-05-07T01:13:33;13.50;99.90
35920;DHT22;36160;53.370;-6.196;2023-05-07T01:16:00;13.40;99.90
35920;DHT22;36160;53.370;-6.196;2023-05-07T01:18:26;13.40;99.90
35920;DHT22;36160;53.370;-6.196;2023-05-07T01:20:52;13.40;99.90
35920;DHT22;36160;53.370;-6.196;2023-05-07T01:23:18;13.50;99.90
35920;DHT22;36160;53.370;-6.196;2023-05-07T01:25:51;13.40;99.90
35920;DHT22;36160;53.370;-6.196;2023-05-07T01:28:18;13.50;99.90
35920;DHT22;36160;53.370;-6.196;2023-05-07T01:30:46;13.50;99.90
35920;DHT22;36160;53.370;-6.196;2023-05-07T01:33:15;13.40;99.90
35920;DHT22;36160;53.370;-6.196;2023-05-07T01:35:45;13.50;99.90
35920;DHT22;36160;53.370;-6.196;2023-05-07T01:38:12;13.40;99.90
35920;DHT22;36160;53.370;-6.196;2023-05-07T01:40:38;13.50;99.90
35920;DHT22;36160;53.370;-6.196;2023-05-07T01:43:05;13.40;99.90
35920;DHT22;36160;53.370;-6.196;2023-05-07T01:45:31;13.50;99.90
35920;DHT22;36160;53.370;-6.196;2023-05-07T01:47:58;13.50;99.90
35920;DHT22;36160;53.370;-6.196;2023-05-07T01:50:25;13.50;99.90
35920;DHT22;36160;53.370;-6.196;2023-05-07T01:52:51;13.40;99.90
35920;DHT22;36160;53.370;-6.196;2023-05-07T01:55:17;13.50;99.90
35920;DHT22;36160;53.370;-6.196;2023-05-07T01:57:43;13.50;99.90
35920;DHT22;36160;53.370;-6.196;2023-05-07T02:00:09;13.50;99.90
35920;DHT22;36160;53.370;-6.196;2023-05-07T02:02:35;13.50;99.90
35920;DHT22;36160;53.370;-6.196;2023-05-07T02:05:01;13.50;99.90
35920;DHT22;36160;53.370;-6.196;2023-05-07T02:07:27;13.50;99.90
35920;DHT22;36160;53.370;-6.196;2023-05-07T02:09:53;13.40;99.90
35920;DHT22;36160;53.370;-6.196;2023-05-07T02:12:21;13.40;99.90
35920;DHT22;36160;53.370;-6.196;2023-05-07T02:14:46;13.50;99.90
35920;DHT22;36160;53.370;-6.196;2023-05-07T02:17:12;13.40;99.90
35920;DHT22;36160;53.370;-6.196;2023-05-07T02:19:38;13.50;99.90
35920;DHT22;36160;53.370;-6.196;2023-05-07T02:22:03;13.40;99.90
35920;DHT22;36160;53.370;-6.196;2023-05-07T02:24:29;13.40;99.90
35920;DHT22;36160;53.370;-6.196;2023-05-07T02:26:55;13.40;99.90
35920;DHT22;36160;53.370;-6.196;2023-05-07T02:29:21;13.40;99.90
35920;DHT22;36160;53.370;-6.196;2023-05-07T02:31:46;13.40;99.90
35920;DHT22;36160;53.370;-6.196;2023-05-07T02:34:16;13.50;99.90
35920;DHT22;36160;53.370;-6.196;2023-05-07T02:36:41;13.40;99.90
35920;DHT22;36160;53.370;-6.196;2023-05-07T02:39:07;13.40;99.90
35920;DHT22;36160;53.370;-6.196;2023-05-07T02:41:33;13.40;99.90
35920;DHT22;36160;53.370;-6.196;2023-05-07T02:43:58;13.40;99.90
35920;DHT22;36160;53.370;-6.196;2023-05-07T02:46:24;13.30;99.90
35920;DHT22;36160;53.370;-6.196;2023-05-07T02:48:49;13.40;99.90
35920;DHT22;36160;53.370;-6.196;2023-05-07T02:51:16;13.40;99.90
35920;DHT22;36160;53.370;-6.196;2023-05-07T02:53:41;13.30;99.90
35920;DHT22;36160;53.370;-6.196;2023-05-07T02:56:07;13.40;99.90
35920;DHT22;36160;53.370;-6.196;2023-05-07T02:58:32;13.30;99.90
35920;DHT22;36160;53.370;-6.196;2023-05-07T03:00:58;13.30;99.90
35920;DHT22;36160;53.370;-6.196;2023-05-07T03:03:24;13.20;99.90
35920;DHT22;36160;53.370;-6.196;2023-05-07T03:05:49;13.20;99.90
35920;DHT22;36160;53.370;-6.196;2023-05-07T03:08:15;13.10;99.90
35920;DHT22;36160;53.370;-6.196;2023-05-07T03:10:40;13.00;99.90
35920;DHT22;36160;53.370;-6.196;2023-05-07T03:13:06;13.00;99.90
35920;DHT22;36160;53.370;-6.196;2023-05-07T03:15:32;13.00;99.90
35920;DHT22;36160;53.370;-6.196;2023-05-07T03:17:57;13.00;99.90
35920;DHT22;36160;53.370;-6.196;2023-05-07T03:20:23;13.10;99.90
35920;DHT22;36160;53.370;-6.196;2023-05-07T03:22:48;13.00;99.90
35920;DHT22;36160;53.370;-6.196;2023-05-07T03:25:14;13.00;99.90
35920;DHT22;36160;53.370;-6.196;2023-05-07T03:27:40;13.00;99.90
35920;DHT22;36160;53.370;-6.196;2023-05-07T03:30:07;13.00;99.90
35920;DHT22;36160;53.370;-6.196;2023-05-07T03:32:33;12.90;99.90
35920;DHT22;36160;53.370;-6.196;2023-05-07T03:34:58;12.90;99.90
35920;DHT22;36160;53.370;-6.196;2023-05-07T03:37:24;12.90;99.90
35920;DHT22;36160;53.370;-6.196;2023-05-07T03:39:49;12.90;99.90
35920;DHT22;36160;53.370;-6.196;2023-05-07T03:42:15;12.90;99.90
35920;DHT22;36160;53.370;-6.196;2023-05-07T03:44:40;12.90;99.90
35920;DHT22;36160;53.370;-6.196;2023-05-07T03:47:06;12.90;99.90
35920;DHT22;36160;53.370;-6.196;2023-05-07T03:49:31;13.00;99.90
35920;DHT22;36160;53.370;-6.196;2023-05-07T03:51:57;12.90;99.90
35920;DHT22;36160;53.370;-6.196;2023-05-07T03:54:22;12.90;99.90
35920;DHT22;36160;53.370;-6.196;2023-05-07T03:56:48;13.00;99.90
35920;DHT22;36160;53.370;-6.196;2023-05-07T03:59:13;13.00;99.90
35920;DHT22;36160;53.370;-6.196;2023-05-07T04:01:39;13.00;99.90
35920;DHT22;36160;53.370;-6.196;2023-05-07T04:04:05;12.90;99.90
35920;DHT22;36160;53.370;-6.196;2023-05-07T04:06:30;12.90;99.90
35920;DHT22;36160;53.370;-6.196;2023-05-07T04:08:56;12.90;99.90
35920;DHT22;36160;53.370;-6.196;2023-05-07T04:11:21;13.00;99.90
35920;DHT22;36160;53.370;-6.196;2023-05-07T04:13:47;13.00;99.90
35920;DHT22;36160;53.370;-6.196;2023-05-07T04:16:13;13.00;99.90
35920;DHT22;36160;53.370;-6.196;2023-05-07T04:18:38;13.00;99.90
35920;DHT22;36160;53.370;-6.196;2023-05-07T04:21:04;13.10;99.90
35920;DHT22;36160;53.370;-6.196;2023-05-07T04:23:29;13.10;99.90
35920;DHT22;36160;53.370;-6.196;2023-05-07T04:25:55;13.10;99.90
35920;DHT22;36160;53.370;-6.196;2023-05-07T04:28:21;13.00;99.90
35920;DHT22;36160;53.370;-6.196;2023-05-07T04:30:46;13.10;99.90
35920;DHT22;36160;53.370;-6.196;2023-05-07T04:33:13;13.10;99.90
35920;DHT22;36160;53.370;-6.196;2023-05-07T04:35:39;13.10;99.90
35920;DHT22;36160;53.370;-6.196;2023-05-07T04:38:04;13.10;99.90
35920;DHT22;36160;53.370;-6.196;2023-05-07T04:40:30;13.10;99.90
35920;DHT22;36160;53.370;-6.196;2023-05-07T04:42:56;13.10;99.90
35920;DHT22;36160;53.370;-6.196;2023-05-07T04:45:21;13.10;99.90
35920;DHT22;36160;53.370;-6.196;2023-05-07T04:47:47;13.10;99.90
35920;DHT22;36160;53.370;-6.196;2023-05-07T04:50:12;13.10;99.90
35920;DHT22;36160;53.370;-6.196;2023-05-07T04:52:38;13.10;99.90
35920;DHT22;36160;53.370;-6.196;2023-05-07T04:55:04;13.10;99.90
35920;DHT22;36160;53.370;-6.196;2023-05-07T04:57:29;13.10;99.90
35920;DHT22;36160;53.370;-6.196;2023-05-07T04:59:55;13.20;99.90
35920;DHT22;36160;53.370;-6.196;2023-05-07T05:02:20;13.10;99.90
35920;DHT22;36160;53.370;-6.196;2023-05-07T05:04:46;13.20;99.90
35920;DHT22;36160;53.370;-6.196;2023-05-07T05:07:11;13.10;99.90
35920;DHT22;36160;53.370;-6.196;2023-05-07T05:09:37;13.10;99.90
35920;DHT22;36160;53.370;-6.196;2023-05-07T05:12:02;13.20;99.90
35920;DHT22;36160;53.370;-6.196;2023-05-07T05:14:29;13.10;99.90
35920;DHT22;36160;53.370;-6.196;2023-05-07T05:16:54;13.10;99.90
35920;DHT22;36160;53.370;-6.196;2023-05-07T05:19:20;13.10;99.90
35920;DHT22;36160;53.370;-6.196;2023-05-07T05:21:45;13.00;99.90
35920;DHT22;36160;53.370;-6.196;2023-05-07T05:24:11;13.00;99.90
35920;DHT22;36160;53.370;-6.196;2023-05-07T05:26:37;13.10;99.90
35920;DHT22;36160;53.370;-6.196;2023-05-07T05:29:02;13.00;99.90
35920;DHT22;36160;53.370;-6.196;2023-05-07T05:31:28;13.10;99.90
35920;DHT22;36160;53.370;-6.196;2023-05-07T05:33:53;13.00;99.90
35920;DHT22;36160;53.370;-6.196;2023-05-07T05:36:19;13.00;99.90
35920;DHT22;36160;53.370;-6.196;2023-05-07T05:38:44;13.00;99.90
35920;DHT22;36160;53.370;-6.196;2023-05-07T05:41:10;13.00;99.90
35920;DHT22;36160;53.370;-6.196;2023-05-07T05:43:35;13.10;99.90
35920;DHT22;36160;53.370;-6.196;2023-05-07T05:46:01;13.10;99.90
35920;DHT22;36160;53.370;-6.196;2023-05-07T05:48:28;13.00;99.90
35920;DHT22;36160;53.370;-6.196;2023-05-07T05:50:54;13.10;99.90
35920;DHT22;36160;53.370;-6.196;2023-05-07T05:53:19;13.10;99.90
35920;DHT22;36160;53.370;-6.196;2023-05-07T05:55:45;13.10;99.90
35920;DHT22;36160;53.370;-6.196;2023-05-07T05:58:11;13.10;99.90
35920;DHT22;36160;53.370;-6.196;2023-05-07T06:00:36;13.20;99.90
35920;DHT22;36160;53.370;-6.196;2023-05-07T06:03:02;13.20;99.90
35920;DHT22;36160;53.370;-6.196;2023-05-07T06:05:27;13.30;99.90
35920;DHT22;36160;53.370;-6.196;2023-05-07T06:07:53;13.30;99.90
35920;DHT22;36160;53.370;-6.196;2023-05-07T06:10:18;13.30;99.90
35920;DHT22;36160;53.370;-6.196;2023-05-07T06:12:44;13.40;99.90
35920;DHT22;36160;53.370;-6.196;2023-05-07T06:15:10;13.50;99.90
35920;DHT22;36160;53.370;-6.196;2023-05-07T06:17:35;13.60;99.90
35920;DHT22;36160;53.370;-6.196;2023-05-07T06:20:01;13.70;99.90
35920;DHT22;36160;53.370;-6.196;2023-05-07T06:22:26;13.80;99.90
35920;DHT22;36160;53.370;-6.196;2023-05-07T06:24:52;13.90;99.90
35920;DHT22;36160;53.370;-6.196;2023-05-07T06:27:18;13.80;99.90
35920;DHT22;36160;53.370;-6.196;2023-05-07T06:29:43;14.00;99.90
35920;DHT22;36160;53.370;-6.196;2023-05-07T06:32:12;14.00;99.90
35920;DHT22;36160;53.370;-6.196;2023-05-07T06:34:39;13.90;99.90
35920;DHT22;36160;53.370;-6.196;2023-05-07T06:37:05;14.00;99.90
35920;DHT22;36160;53.370;-6.196;2023-05-07T06:39:30;14.20;99.90
35920;DHT22;36160;53.370;-6.196;2023-05-07T06:41:56;14.20;99.90
35920;DHT22;36160;53.370;-6.196;2023-05-07T06:44:21;14.30;99.90
35920;DHT22;36160;53.370;-6.196;2023-05-07T06:46:47;14.40;99.90
35920;DHT22;36160;53.370;-6.196;2023-05-07T06:49:13;14.40;99.90
35920;DHT22;36160;53.370;-6.196;2023-05-07T06:51:39;14.50;99.90
35920;DHT22;36160;53.370;-6.196;2023-05-07T06:54:05;14.70;99.90
35920;DHT22;36160;53.370;-6.196;2023-05-07T06:56:30;15.00;99.90
35920;DHT22;36160;53.370;-6.196;2023-05-07T06:58:56;14.80;99.90
35920;DHT22;36160;53.370;-6.196;2023-05-07T07:01:21;14.80;99.90
35920;DHT22;36160;53.370;-6.196;2023-05-07T07:03:47;14.80;99.90
35920;DHT22;36160;53.370;-6.196;2023-05-07T07:06:13;14.80;99.90
35920;DHT22;36160;53.370;-6.196;2023-05-07T07:08:38;14.90;99.90
35920;DHT22;36160;53.370;-6.196;2023-05-07T07:11:04;14.80;99.90
35920;DHT22;36160;53.370;-6.196;2023-05-07T07:13:30;14.80;99.90
35920;DHT22;36160;53.370;-6.196;2023-05-07T07:15:55;14.90;99.90
35920;DHT22;36160;53.370;-6.196;2023-05-07T07:18:21;15.00;99.90
35920;DHT22;36160;53.370;-6.196;2023-05-07T07:20:46;15.00;99.90
35920;DHT22;36160;53.370;-6.196;2023-05-07T07:23:12;15.10;99.90
35920;DHT22;36160;53.370;-6.196;2023-05-07T07:25:37;15.00;99.90
35920;DHT22;36160;53.370;-6.196;2023-05-07T07:28:03;15.20;99.90
35920;DHT22;36160;53.370;-6.196;2023-05-07T07:30:28;15.20;99.90
35920;DHT22;36160;53.370;-6.196;2023-05-07T07:32:54;15.30;99.90
35920;DHT22;36160;53.370;-6.196;2023-05-07T07:35:22;15.30;99.90
35920;DHT22;36160;53.370;-6.196;2023-05-07T07:37:48;15.40;99.90
35920;DHT22;36160;53.370;-6.196;2023-05-07T07:40:15;15.40;99.90
35920;DHT22;36160;53.370;-6.196;2023-05-07T07:42:41;15.50;99.90
35920;DHT22;36160;53.370;-6.196;2023-05-07T07:45:06;15.60;99.90
35920;DHT22;36160;53.370;-6.196;2023-05-07T07:47:32;15.60;99.90
35920;DHT22;36160;53.370;-6.196;2023-05-07T07:49:58;15.70;99.90
35920;DHT22;36160;53.370;-6.196;2023-05-07T07:52:23;15.70;99.90
35920;DHT22;36160;53.370;-6.196;2023-05-07T07:54:49;15.80;99.90
35920;DHT22;36160;53.370;-6.196;2023-05-07T07:57:14;15.90;99.90
35920;DHT22;36160;53.370;-6.196;2023-05-07T07:59:40;15.90;99.90
35920;DHT22;36160;53.370;-6.196;2023-05-07T08:02:07;15.90;99.90
35920;DHT22;36160;53.370;-6.196;2023-05-07T08:04:33;15.90;99.90
35920;DHT22;36160;53.370;-6.196;2023-05-07T08:06:58;16.10;99.90
35920;DHT22;36160;53.370;-6.196;2023-05-07T08:09:24;15.90;99.90
35920;DHT22;36160;53.370;-6.196;2023-05-07T08:11:49;15.90;99.90
35920;DHT22;36160;53.370;-6.196;2023-05-07T08:14:15;15.90;99.90
35920;DHT22;36160;53.370;-6.196;2023-05-07T08:16:41;16.10;99.90
35920;DHT22;36160;53.370;-6.196;2023-05-07T08:19:06;16.10;99.90
35920;DHT22;36160;53.370;-6.196;2023-05-07T08:21:32;16.40;99.90
35920;DHT22;36160;53.370;-6.196;2023-05-07T08:23:57;16.70;99.90
35920;DHT22;36160;53.370;-6.196;2023-05-07T08:26:23;16.80;99.90
35920;DHT22;36160;53.370;-6.196;2023-05-07T08:28:48;16.90;99.90
35920;DHT22;36160;53.370;-6.196;2023-05-07T08:31:14;16.80;99.90
35920;DHT22;36160;53.370;-6.196;2023-05-07T08:33:40;16.90;99.90
35920;DHT22;36160;53.370;-6.196;2023-05-07T08:36:05;16.70;99.90
35920;DHT22;36160;53.370;-6.196;2023-05-07T08:38:31;16.80;99.90
35920;DHT22;36160;53.370;-6.196;2023-05-07T08:40:56;16.80;99.90
35920;DHT22;36160;53.370;-6.196;2023-05-07T08:43:22;16.80;99.90
35920;DHT22;36160;53.370;-6.196;2023-05-07T08:45:52;16.80;99.90
35920;DHT22;36160;53.370;-6.196;2023-05-07T08:48:18;16.80;99.90
35920;DHT22;36160;53.370;-6.196;2023-05-07T08:50:45;16.60;93.20
35920;DHT22;36160;53.370;-6.196;2023-05-07T08:53:11;16.90;99.90
35920;DHT22;36160;53.370;-6.196;2023-05-07T08:55:37;17.10;99.90
35920;DHT22;36160;53.370;-6.196;2023-05-07T08:58:03;17.10;99.90
35920;DHT22;36160;53.370;-6.196;2023-05-07T09:00:28;17.10;99.90
35920;DHT22;36160;53.370;-6.196;2023-05-07T09:02:54;17.10;26.80
35920;DHT22;36160;53.370;-6.196;2023-05-07T09:05:20;17.10;66.90
35920;DHT22;36160;53.370;-6.196;2023-05-07T09:07:46;17.30;99.90
35920;DHT22;36160;53.370;-6.196;2023-05-07T09:10:12;17.20;99.90
35920;DHT22;36160;53.370;-6.196;2023-05-07T09:12:40;17.20;58.80
35920;DHT22;36160;53.370;-6.196;2023-05-07T09:15:06;17.30;99.90
35920;DHT22;36160;53.370;-6.196;2023-05-07T09:17:32;17.30;99.90
35920;DHT22;36160;53.370;-6.196;2023-05-07T09:20:02;17.50;6.40
35920;DHT22;36160;53.370;-6.196;2023-05-07T09:22:29;17.50;99.90
35920;DHT22;36160;53.370;-6.196;2023-05-07T09:24:56;17.60;1.00
35920;DHT22;36160;53.370;-6.196;2023-05-07T09:27:21;17.70;99.90
35920;DHT22;36160;53.370;-6.196;2023-05-07T09:29:47;17.70;99.90
35920;DHT22;36160;53.370;-6.196;2023-05-07T09:32:13;18.00;1.00
35920;DHT22;36160;53.370;-6.196;2023-05-07T09:34:39;17.90;29.70
35920;DHT22;36160;53.370;-6.196;2023-05-07T09:37:06;17.60;99.90
35920;DHT22;36160;53.370;-6.196;2023-05-07T09:39:40;17.90;99.90
35920;DHT22;36160;53.370;-6.196;2023-05-07T09:42:06;18.10;1.00
35920;DHT22;36160;53.370;-6.196;2023-05-07T09:44:32;18.30;99.90
35920;DHT22;36160;53.370;-6.196;2023-05-07T09:46:57;18.30;99.90
35920;DHT22;36160;53.370;-6.196;2023-05-07T09:49:24;18.30;99.90
35920;DHT22;36160;53.370;-6.196;2023-05-07T09:51:52;18.10;19.30
35920;DHT22;36160;53.370;-6.196;2023-05-07T09:54:18;17.80;99.90
35920;DHT22;36160;53.370;-6.196;2023-05-07T09:56:48;17.70;99.90
35920;DHT22;36160;53.370;-6.196;2023-05-07T09:59:14;17.60;99.90
35920;DHT22;36160;53.370;-6.196;2023-05-07T10:01:44;17.80;99.90
35920;DHT22;36160;53.370;-6.196;2023-05-07T10:04:12;17.80;31.90
35920;DHT22;36160;53.370;-6.196;2023-05-07T10:06:39;18.00;99.90
35920;DHT22;36160;53.370;-6.196;2023-05-07T10:09:05;18.30;99.90
35920;DHT22;36160;53.370;-6.196;2023-05-07T10:11:34;18.60;99.90
35920;DHT22;36160;53.370;-6.196;2023-05-07T10:14:01;18.60;99.90
35920;DHT22;36160;53.370;-6.196;2023-05-07T10:16:28;18.60;99.90
35920;DHT22;36160;53.370;-6.196;2023-05-07T10:18:54;18.50;99.90
35920;DHT22;36160;53.370;-6.196;2023-05-07T10:21:20;18.40;99.90
35920;DHT22;36160;53.370;-6.196;2023-05-07T10:23:48;18.40;99.90
35920;DHT22;36160;53.370;-6.196;2023-05-07T10:26:23;18.30;99.90
35920;DHT22;36160;53.370;-6.196;2023-05-07T10:28:50;17.90;64.90
35920;DHT22;36160;53.370;-6.196;2023-05-07T10:34:36;17.70;54.90
35920;DHT22;36160;53.370;-6.196;2023-05-07T10:37:03;17.70;99.90
35920;DHT22;36160;53.370;-6.196;2023-05-07T10:39:39;17.60;99.90
35920;DHT22;36160;53.370;-6.196;2023-05-07T10:42:10;17.50;65.80
35920;DHT22;36160;53.370;-6.196;2023-05-07T10:44:36;17.30;99.90
35920;DHT22;36160;53.370;-6.196;2023-05-07T10:47:09;17.40;99.90
35920;DHT22;36160;53.370;-6.196;2023-05-07T10:49:36;17.30;1.00
35920;DHT22;36160;53.370;-6.196;2023-05-07T10:54:42;17.30;99.90
35920;DHT22;36160;53.370;-6.196;2023-05-07T10:57:52;17.60;99.90
35920;DHT22;36160;53.370;-6.196;2023-05-07T10:59:59;17.50;99.90
35920;DHT22;36160;53.370;-6.196;2023-05-07T11:03:04;17.60;99.90
35920;DHT22;36160;53.370;-6.196;2023-05-07T11:07:53;17.30;99.90
35920;DHT22;36160;53.370;-6.196;2023-05-07T11:10:19;17.50;99.90
35920;DHT22;36160;53.370;-6.196;2023-05-07T11:15:10;17.60;99.90
35920;DHT22;36160;53.370;-6.196;2023-05-07T11:17:55;17.60;99.90
35920;DHT22;36160;53.370;-6.196;2023-05-07T11:20:20;17.50;99.90
35920;DHT22;36160;53.370;-6.196;2023-05-07T11:22:46;17.80;99.90
35920;DHT22;36160;53.370;-6.196;2023-05-07T11:25:17;17.80;99.90
35920;DHT22;36160;53.370;-6.196;2023-05-07T11:27:43;17.90;99.90
35920;DHT22;36160;53.370;-6.196;2023-05-07T11:30:08;17.70;91.10
35920;DHT22;36160;53.370;-6.196;2023-05-07T11:32:34;17.60;99.90
35920;DHT22;36160;53.370;-6.196;2023-05-07T11:35:00;17.80;58.20
35920;DHT22;36160;53.370;-6.196;2023-05-07T11:37:26;17.90;99.90
35920;DHT22;36160;53.370;-6.196;2023-05-07T11:40:02;17.80;99.90
35920;DHT22;36160;53.370;-6.196;2023-05-07T11:42:33;17.70;99.90
35920;DHT22;36160;53.370;-6.196;2023-05-07T11:44:59;17.80;99.90
35920;DHT22;36160;53.370;-6.196;2023-05-07T11:47:25;18.10;54.50
35920;DHT22;36160;53.370;-6.196;2023-05-07T11:49:51;17.90;99.90
35920;DHT22;36160;53.370;-6.196;2023-05-07T11:52:17;17.70;1.00
35920;DHT22;36160;53.370;-6.196;2023-05-07T11:54:53;17.60;99.90
35920;DHT22;36160;53.370;-6.196;2023-05-07T11:57:20;17.70;99.90
35920;DHT22;36160;53.370;-6.196;2023-05-07T11:59:45;17.50;33.80
35920;DHT22;36160;53.370;-6.196;2023-05-07T12:02:13;17.50;1.00
35920;DHT22;36160;53.370;-6.196;2023-05-07T12:04:39;17.70;1.00
35920;DHT22;36160;53.370;-6.196;2023-05-07T12:07:05;17.70;99.90
35920;DHT22;36160;53.370;-6.196;2023-05-07T12:09:32;17.80;99.90
35920;DHT22;36160;53.370;-6.196;2023-05-07T12:12:02;17.90;1.00
35920;DHT22;36160;53.370;-6.196;2023-05-07T12:14:28;18.20;99.90
35920;DHT22;36160;53.370;-6.196;2023-05-07T12:16:54;18.20;1.00
35920;DHT22;36160;53.370;-6.196;2023-05-07T12:19:20;18.10;99.90
35920;DHT22;36160;53.370;-6.196;2023-05-07T12:21:45;18.00;52.90
35920;DHT22;36160;53.370;-6.196;2023-05-07T12:24:11;17.90;1.00
35920;DHT22;36160;53.370;-6.196;2023-05-07T12:26:37;17.90;91.90
35920;DHT22;36160;53.370;-6.196;2023-05-07T12:29:03;18.10;99.90
35920;DHT22;36160;53.370;-6.196;2023-05-07T12:31:28;18.30;99.90
35920;DHT22;36160;53.370;-6.196;2023-05-07T12:33:54;18.60;1.00
35920;DHT22;36160;53.370;-6.196;2023-05-07T12:36:20;18.80;99.90
35920;DHT22;36160;53.370;-6.196;2023-05-07T12:38:46;18.80;50.00
35920;DHT22;36160;53.370;-6.196;2023-05-07T12:41:15;18.80;99.90
35920;DHT22;36160;53.370;-6.196;2023-05-07T12:43:43;18.80;99.90
35920;DHT22;36160;53.370;-6.196;2023-05-07T12:46:09;18.90;99.90
35920;DHT22;36160;53.370;-6.196;2023-05-07T12:48:37;19.00;99.90
35920;DHT22;36160;53.370;-6.196;2023-05-07T12:51:03;19.40;99.90
35920;DHT22;36160;53.370;-6.196;2023-05-07T12:53:30;19.50;99.90
35920;DHT22;36160;53.370;-6.196;2023-05-07T12:55:58;19.50;79.70
35920;DHT22;36160;53.370;-6.196;2023-05-07T12:58:29;19.50;99.90
35920;DHT22;36160;53.370;-6.196;2023-05-07T13:00:56;19.60;99.90
35920;DHT22;36160;53.370;-6.196;2023-05-07T13:03:30;19.70;99.90
35920;DHT22;36160;53.370;-6.196;2023-05-07T13:06:02;19.70;99.90
35920;DHT22;36160;53.370;-6.196;2023-05-07T13:08:34;19.80;99.90
35920;DHT22;36160;53.370;-6.196;2023-05-07T13:11:01;19.90;99.90
35920;DHT22;36160;53.370;-6.196;2023-05-07T13:13:31;19.80;99.90
35920;DHT22;36160;53.370;-6.196;2023-05-07T13:15:57;19.70;99.90
35920;DHT22;36160;53.370;-6.196;2023-05-07T13:18:24;19.70;99.90
35920;DHT22;36160;53.370;-6.196;2023-05-07T13:20:51;19.60;99.90
35920;DHT22;36160;53.370;-6.196;2023-05-07T13:23:17;19.40;99.90
35920;DHT22;36160;53.370;-6.196;2023-05-07T13:25:43;19.40;99.90
35920;DHT22;36160;53.370;-6.196;2023-05-07T13:28:08;19.30;99.90
35920;DHT22;36160;53.370;-6.196;2023-05-07T13:30:34;19.30;1.00
35920;DHT22;36160;53.370;-6.196;2023-05-07T13:33:00;19.30;99.90
35920;DHT22;36160;53.370;-6.196;2023-05-07T13:35:26;19.20;37.70
35920;DHT22;36160;53.370;-6.196;2023-05-07T13:37:52;19.20;26.10
35920;DHT22;36160;53.370;-6.196;2023-05-07T13:40:18;19.20;9.90
35920;DHT22;36160;53.370;-6.196;2023-05-07T13:42:44;19.30;26.00
35920;DHT22;36160;53.370;-6.196;2023-05-07T13:45:10;19.40;99.90
35920;DHT22;36160;53.370;-6.196;2023-05-07T13:47:36;19.70;1.00
35920;DHT22;36160;53.370;-6.196;2023-05-07T13:50:01;19.80;99.90
35920;DHT22;36160;53.370;-6.196;2023-05-07T13:52:27;20.10;99.90
35920;DHT22;36160;53.370;-6.196;2023-05-07T13:54:53;20.40;99.90
35920;DHT22;36160;53.370;-6.196;2023-05-07T13:57:20;20.50;99.90
35920;DHT22;36160;53.370;-6.196;2023-05-07T13:59:46;20.60;99.90
35920;DHT22;36160;53.370;-6.196;2023-05-07T14:02:11;20.60;27.90
35920;DHT22;36160;53.370;-6.196;2023-05-07T14:04:37;20.80;1.00
35920;DHT22;36160;53.370;-6.196;2023-05-07T14:07:03;21.00;99.90
35920;DHT22;36160;53.370;-6.196;2023-05-07T14:09:29;21.10;99.90
35920;DHT22;36160;53.370;-6.196;2023-05-07T14:11:54;21.30;99.90
35920;DHT22;36160;53.370;-6.196;2023-05-07T14:14:20;21.40;99.90
35920;DHT22;36160;53.370;-6.196;2023-05-07T14:16:46;21.50;99.90
35920;DHT22;36160;53.370;-6.196;2023-05-07T14:19:12;21.60;99.90
35920;DHT22;36160;53.370;-6.196;2023-05-07T14:21:38;21.40;99.90
35920;DHT22;36160;53.370;-6.196;2023-05-07T14:24:05;21.40;99.90
35920;DHT22;36160;53.370;-6.196;2023-05-07T14:26:31;21.30;99.90
35920;DHT22;36160;53.370;-6.196;2023-05-07T14:28:57;21.30;99.90
35920;DHT22;36160;53.370;-6.196;2023-05-07T14:31:24;21.30;99.90
35920;DHT22;36160;53.370;-6.196;2023-05-07T14:33:50;21.30;99.90
35920;DHT22;36160;53.370;-6.196;2023-05-07T14:36:16;21.40;99.90
35920;DHT22;36160;53.370;-6.196;2023-05-07T14:38:43;21.40;99.90
35920;DHT22;36160;53.370;-6.196;2023-05-07T14:41:08;21.40;99.90
35920;DHT22;36160;53.370;-6.196;2023-05-07T14:43:34;21.30;99.90
35920;DHT22;36160;53.370;-6.196;2023-05-07T14:46:00;21.00;99.90
35920;DHT22;36160;53.370;-6.196;2023-05-07T14:48:25;20.90;1.00
35920;DHT22;36160;53.370;-6.196;2023-05-07T14:50:51;20.50;1.00
35920;DHT22;36160;53.370;-6.196;2023-05-07T14:53:16;20.40;50.80
35920;DHT22;36160;53.370;-6.196;2023-05-07T14:55:42;20.20;99.90
35920;DHT22;36160;53.370;-6.196;2023-05-07T14:58:08;20.00;99.90
35920;DHT22;36160;53.370;-6.196;2023-05-07T15:00:34;19.70;99.90
35920;DHT22;36160;53.370;-6.196;2023-05-07T15:03:09;19.60;99.90
35920;DHT22;36160;53.370;-6.196;2023-05-07T15:05:36;19.40;99.90
35920;DHT22;36160;53.370;-6.196;2023-05-07T15:08:02;19.20;1.00
35920;DHT22;36160;53.370;-6.196;2023-05-07T15:10:28;19.10;99.90
35920;DHT22;36160;53.370;-6.196;2023-05-07T15:12:54;19.00;99.90
35920;DHT22;36160;53.370;-6.196;2023-05-07T15:15:20;18.80;99.90
35920;DHT22;36160;53.370;-6.196;2023-05-07T15:17:45;18.70;1.00
35920;DHT22;36160;53.370;-6.196;2023-05-07T15:20:11;18.70;44.90
35920;DHT22;36160;53.370;-6.196;2023-05-07T15:22:37;18.60;99.90